createdAt,value
2018-06-12T00:01:43.910Z,14.20
2018-06-12T00:04:14.326Z,12.43
2018-06-12T00:06:44.427Z,14.17
2018-06-12T00:09:14.750Z,12.40
2018-06-12T00:11:44.326Z,15.70
2018-06-12T00:14:14.879Z,13.20
2018-06-12T00:16:45.188Z,13.50
2018-06-12T00:19:15.362Z,13.30
2018-06-12T00:21:45.066Z,14.13
2018-06-12T00:24:15.246Z,16.13
2018-06-12T00:26:45.790Z,14.00
2018-06-12T00:29:15.607Z,12.87
2018-06-12T00:31:45.305Z,14.13
2018-06-12T00:34:15.275Z,14.17
2018-06-12T00:36:44.899Z,16.53
2018-06-12T00:39:16.874Z,14.03
2018-06-12T00:41:47.486Z,15.80
2018-06-12T00:44:18.253Z,14.57
2018-06-12T00:46:47.942Z,14.30
2018-06-12T00:49:18.755Z,17.67
2018-06-12T00:51:49.297Z,16.73
2018-06-12T00:54:19.983Z,15.93
2018-06-12T00:57:01.472Z,17.53
2018-06-12T00:59:31.751Z,15.70
2018-06-12T01:02:01.399Z,16.03
2018-06-12T01:04:30.814Z,16.17
2018-06-12T01:07:00.380Z,16.00
2018-06-12T01:09:34.127Z,15.87
2018-06-12T01:12:04.158Z,18.13
2018-06-12T01:14:34.494Z,16.47
2018-06-12T01:17:04.970Z,16.47
2018-06-12T01:19:34.602Z,15.80
2018-06-12T01:22:04.222Z,17.97
2018-06-12T01:24:34.011Z,16.30
2018-06-12T01:27:04.149Z,18.23
2018-06-12T01:29:34.650Z,17.87
2018-06-12T01:32:05.886Z,18.53
2018-06-12T01:34:36.366Z,16.93
2018-06-12T01:37:07.298Z,17.23
2018-06-12T01:39:38.186Z,17.47
2018-06-12T01:42:08.150Z,19.60
2018-06-12T01:44:37.649Z,18.30
2018-06-12T01:47:07.791Z,16.83
2018-06-12T01:49:39.263Z,18.97
2018-06-12T01:52:10.334Z,21.87
2018-06-12T01:54:39.902Z,20.40
2018-06-12T01:57:09.016Z,18.63
2018-06-12T01:59:38.023Z,19.20
2018-06-12T02:02:08.019Z,19.93
2018-06-12T02:04:38.438Z,19.20
2018-06-12T02:07:09.899Z,18.50
2018-06-12T02:09:39.874Z,19.27
2018-06-12T02:12:10.278Z,19.00
2018-06-12T02:14:40.348Z,18.87
2018-06-12T02:17:11.131Z,21.37
2018-06-12T02:19:40.878Z,20.47
2018-06-12T02:22:10.430Z,20.10
2018-06-12T02:24:41.319Z,21.57
2018-06-12T02:27:11.491Z,18.63
2018-06-12T02:29:42.368Z,21.23
2018-06-12T02:32:11.958Z,21.80
2018-06-12T02:34:42.017Z,20.73
2018-06-12T02:37:11.541Z,21.83
2018-06-12T02:39:41.702Z,20.67
2018-06-12T02:42:11.289Z,20.00
2018-06-12T02:44:41.046Z,20.03
2018-06-12T02:47:10.847Z,19.83
2018-06-12T02:49:41.051Z,21.97
2018-06-12T02:52:10.887Z,19.40
2018-06-12T02:54:41.030Z,22.30
2018-06-12T02:57:11.187Z,24.67
2018-06-12T02:59:41.474Z,21.40
2018-06-12T03:02:11.911Z,23.40
2018-06-12T03:04:41.484Z,24.50
2018-06-12T03:07:11.698Z,27.53
2018-06-12T03:09:41.810Z,23.10
2018-06-12T03:12:11.538Z,21.87
2018-06-12T03:14:41.153Z,24.03
2018-06-12T03:17:10.762Z,21.63
2018-06-12T03:19:40.994Z,24.67
2018-06-12T03:22:10.418Z,24.23
2018-06-12T03:24:41.614Z,25.03
2018-06-12T03:27:12.659Z,23.53
2018-06-12T03:29:43.070Z,25.37
2018-06-12T03:32:13.706Z,23.13
2018-06-12T03:34:44.501Z,26.23
2018-06-12T03:37:15.062Z,23.17
2018-06-12T03:39:45.250Z,22.27
2018-06-12T03:42:15.872Z,23.20
2018-06-12T03:44:46.253Z,24.50
2018-06-12T03:47:18.367Z,28.57
2018-06-12T03:49:49.610Z,22.73
2018-06-12T03:52:26.190Z,25.40
2018-06-12T03:54:56.118Z,26.37
2018-06-12T03:57:26.027Z,28.37
2018-06-12T03:59:55.977Z,27.73
2018-06-12T04:02:27.013Z,27.17
2018-06-12T04:04:56.861Z,32.80
2018-06-12T04:07:26.922Z,29.27
2018-06-12T04:09:56.733Z,29.80
2018-06-12T04:12:26.690Z,28.80
2018-06-12T04:14:58.156Z,32.13
2018-06-12T04:17:28.339Z,30.97
2018-06-12T04:19:58.218Z,29.57
2018-06-12T04:22:28.167Z,29.70
2018-06-12T04:24:57.991Z,33.70
2018-06-12T04:27:28.238Z,28.80
2018-06-12T04:29:58.222Z,28.40
2018-06-12T04:32:27.746Z,34.40
2018-06-12T04:34:58.630Z,33.80
2018-06-12T04:37:28.930Z,30.37
2018-06-12T04:39:58.918Z,35.47
2018-06-12T04:42:29.706Z,28.73
2018-06-12T04:44:59.946Z,32.97
2018-06-12T04:47:29.582Z,35.07
2018-06-12T04:50:00.292Z,37.67
2018-06-12T04:52:29.422Z,33.10
2018-06-12T04:54:59.943Z,32.23
2018-06-12T04:57:30.514Z,33.13
2018-06-12T05:00:01.528Z,32.87
2018-06-12T05:02:31.114Z,31.93
2018-06-12T05:05:01.207Z,31.07
2018-06-12T05:07:31.746Z,25.73
2018-06-12T05:10:02.646Z,27.87
2018-06-12T05:12:32.189Z,25.80
2018-06-12T05:15:01.883Z,26.23
2018-06-12T05:17:31.003Z,26.33
2018-06-12T05:20:01.175Z,27.87
2018-06-12T05:22:32.373Z,23.87
2018-06-12T05:25:02.199Z,26.10
2018-06-12T05:27:33.498Z,24.80
2018-06-12T05:30:03.754Z,27.53
2018-06-12T05:32:34.228Z,23.20
2018-06-12T05:35:03.770Z,24.60
2018-06-12T05:37:33.507Z,25.40
2018-06-12T05:40:03.375Z,22.90
2018-06-12T05:42:33.858Z,23.23
2018-06-12T05:45:03.370Z,22.47
2018-06-12T05:47:33.294Z,24.73
2018-06-12T05:50:03.178Z,20.33
2018-06-12T05:52:33.219Z,22.80
2018-06-12T05:55:03.258Z,22.87
2018-06-12T05:57:33.141Z,23.50
2018-06-12T06:00:02.282Z,25.53
2018-06-12T06:02:32.548Z,21.10
2018-06-12T06:05:02.207Z,22.17
2018-06-12T06:07:32.154Z,20.47
2018-06-12T06:10:02.549Z,20.27
2018-06-12T06:12:31.934Z,18.23
2018-06-12T06:15:02.028Z,22.67
2018-06-12T06:17:32.446Z,21.87
2018-06-12T06:20:01.990Z,18.70
2018-06-12T06:22:31.996Z,15.60
2018-06-12T06:25:01.782Z,16.87
2018-06-12T06:27:32.162Z,17.30
2018-06-12T06:30:01.286Z,20.07
2018-06-12T06:32:31.087Z,18.53
2018-06-12T06:35:01.062Z,18.40
2018-06-12T06:37:30.583Z,17.50
2018-06-12T06:40:00.017Z,19.53
2018-06-12T06:42:30.001Z,20.77
2018-06-12T06:45:00.162Z,19.27
2018-06-12T06:47:30.082Z,16.07
2018-06-12T06:50:00.474Z,20.33
2018-06-12T06:52:31.206Z,19.10
2018-06-12T06:55:02.751Z,21.40
2018-06-12T06:57:32.470Z,18.43
2018-06-12T07:00:02.947Z,16.73
2018-06-12T07:02:32.413Z,14.50
2018-06-12T07:05:02.190Z,15.00
2018-06-12T07:07:33.278Z,14.60
2018-06-12T07:10:03.211Z,13.53
2018-06-12T07:12:33.210Z,14.90
2018-06-12T07:15:02.841Z,19.87
2018-06-12T07:17:32.694Z,16.50
2018-06-12T07:20:02.503Z,15.77
2018-06-12T07:22:32.969Z,12.93
2018-06-12T07:25:02.893Z,15.23
2018-06-12T07:27:32.366Z,10.60
2018-06-12T07:30:01.985Z,11.00
2018-06-12T07:32:31.536Z,12.23
2018-06-12T07:35:01.458Z,15.70
2018-06-12T07:37:31.012Z,13.27
2018-06-12T07:40:02.074Z,13.37
2018-06-12T07:42:32.950Z,12.60
2018-06-12T07:45:02.878Z,14.37
2018-06-12T07:47:33.735Z,11.63
2018-06-12T07:50:03.207Z,11.53
2018-06-12T07:52:32.742Z,13.23
2018-06-12T07:55:02.106Z,12.97
2018-06-12T07:57:32.310Z,12.53
2018-06-12T08:00:02.603Z,13.10
2018-06-12T08:02:32.175Z,13.20
2018-06-12T08:05:02.008Z,12.07
2018-06-12T08:07:32.938Z,12.70
2018-06-12T08:10:02.306Z,13.10
2018-06-12T08:12:32.108Z,12.63
2018-06-12T08:15:03.327Z,15.73
2018-06-12T08:17:33.238Z,16.63
2018-06-12T08:20:03.765Z,13.70
2018-06-12T08:22:33.950Z,12.03
2018-06-12T08:25:04.483Z,10.83
2018-06-12T08:27:34.774Z,11.40
2018-06-12T08:30:04.230Z,9.70
2018-06-12T08:32:35.427Z,10.77
2018-06-12T08:35:04.651Z,13.37
2018-06-12T08:37:34.769Z,10.17
2018-06-12T08:40:05.682Z,12.30
2018-06-12T08:42:35.251Z,9.60
2018-06-12T08:45:05.057Z,10.43
2018-06-12T08:47:36.902Z,10.03
2018-06-12T08:50:07.210Z,7.80
2018-06-12T08:52:37.382Z,10.00
2018-06-12T08:55:07.183Z,11.67
2018-06-12T08:57:37.797Z,9.80
2018-06-12T09:00:07.266Z,11.63
2018-06-12T09:02:37.984Z,9.23
2018-06-12T09:05:09.010Z,10.33
2018-06-12T09:07:40.704Z,11.33
2018-06-12T09:10:09.946Z,11.00
2018-06-12T09:12:40.662Z,9.40
2018-06-12T09:15:10.759Z,7.33
2018-06-12T09:17:41.046Z,7.53
2018-06-12T09:20:11.666Z,10.70
2018-06-12T09:22:43.546Z,8.97
2018-06-12T09:25:13.322Z,10.40
2018-06-12T09:27:49.054Z,15.83
2018-06-12T09:30:23.006Z,9.30
2018-06-12T09:32:54.983Z,8.63
2018-06-12T09:35:25.071Z,8.70
2018-06-12T09:37:54.313Z,9.30
2018-06-12T09:40:24.374Z,10.60
2018-06-12T09:42:55.427Z,13.23
2018-06-12T09:45:25.842Z,9.27
2018-06-12T09:47:56.130Z,8.60
2018-06-12T09:50:26.363Z,8.60
2018-06-12T09:52:57.017Z,8.57
2018-06-12T09:55:27.129Z,9.97
2018-06-12T09:57:57.634Z,7.37
2018-06-12T10:00:32.947Z,11.03
2018-06-12T10:03:02.945Z,11.53
2018-06-12T10:05:33.091Z,9.40
2018-06-12T10:08:03.003Z,8.83
2018-06-12T10:10:33.055Z,9.23
2018-06-12T10:13:03.006Z,13.87
2018-06-12T10:15:33.750Z,10.10
2018-06-12T10:18:04.120Z,8.63
2018-06-12T10:20:34.607Z,11.80
2018-06-12T10:23:04.759Z,10.87
2018-06-12T10:25:34.422Z,13.70
2018-06-12T10:28:04.529Z,9.10
2018-06-12T10:30:34.802Z,10.80
2018-06-12T10:33:10.135Z,10.63
2018-06-12T10:35:40.556Z,12.17
2018-06-12T10:38:11.294Z,10.93
2018-06-12T10:40:40.798Z,11.10
2018-06-12T10:43:11.190Z,10.30
2018-06-12T10:45:40.291Z,8.97
2018-06-12T10:48:09.866Z,13.57
2018-06-12T10:50:40.562Z,11.37
2018-06-12T10:53:10.175Z,11.03
2018-06-12T10:55:40.442Z,10.63
2018-06-12T10:58:10.298Z,8.40
2018-06-12T11:00:40.682Z,11.63
2018-06-12T11:03:10.578Z,9.43
2018-06-12T11:05:40.102Z,8.83
2018-06-12T11:08:09.930Z,9.83
2018-06-12T11:10:39.274Z,14.47
2018-06-12T11:13:10.026Z,11.13
2018-06-12T11:15:40.902Z,9.47
2018-06-12T11:18:10.812Z,11.73
2018-06-12T11:20:41.326Z,10.67
2018-06-12T11:23:11.039Z,11.53
2018-06-12T11:25:42.150Z,12.37
2018-06-12T11:28:12.629Z,10.67
2018-06-12T11:30:43.439Z,11.47
2018-06-12T11:33:12.851Z,11.73
2018-06-12T11:35:42.987Z,12.07
2018-06-12T11:38:12.530Z,12.27
2018-06-12T11:40:42.522Z,14.33
2018-06-12T11:43:12.078Z,14.97
2018-06-12T11:45:41.836Z,12.50
2018-06-12T11:48:13.382Z,9.93
2018-06-12T11:50:44.970Z,11.30
2018-06-12T11:53:14.568Z,10.60
2018-06-12T11:55:44.702Z,9.97
2018-06-12T11:58:13.958Z,10.47
2018-06-12T12:00:44.297Z,11.50
2018-06-12T12:03:16.163Z,12.80
2018-06-12T12:05:46.911Z,14.93
2018-06-12T12:08:16.799Z,9.17
2018-06-12T12:10:47.063Z,8.07
2018-06-12T12:13:17.327Z,16.13
2018-06-12T12:15:47.166Z,8.67
2018-06-12T12:18:16.960Z,10.63
2018-06-12T12:20:47.527Z,12.57
2018-06-12T12:23:17.205Z,12.60
2018-06-12T12:25:47.151Z,11.90
2018-06-12T12:28:18.003Z,9.83
2018-06-12T12:30:48.553Z,10.40
2018-06-12T12:33:17.969Z,11.50
2018-06-12T12:35:47.926Z,11.90
2018-06-12T12:38:18.626Z,9.60
2018-06-12T12:40:48.998Z,10.40
2018-06-12T12:43:19.974Z,8.40
2018-06-12T12:45:50.258Z,12.73
2018-06-12T12:48:20.099Z,11.07
2018-06-12T12:50:51.250Z,15.37
2018-06-12T12:53:20.981Z,7.60
2018-06-12T12:55:50.161Z,10.13
2018-06-12T12:58:19.350Z,10.53
2018-06-12T13:00:50.137Z,10.97
2018-06-12T13:03:19.986Z,11.27
2018-06-12T13:05:51.194Z,10.77
2018-06-12T13:08:21.070Z,9.13
2018-06-12T13:10:51.886Z,9.30
2018-06-12T13:13:22.331Z,9.50
2018-06-12T13:15:51.873Z,11.80
2018-06-12T13:18:21.310Z,11.70
2018-06-12T13:20:50.504Z,11.23
2018-06-12T13:23:20.409Z,10.77
2018-06-12T13:25:50.818Z,10.30
2018-06-12T13:28:21.315Z,12.60
2018-06-12T13:30:51.931Z,14.20
2018-06-12T13:33:22.421Z,14.63
2018-06-12T13:35:52.875Z,13.20
2018-06-12T13:38:22.478Z,11.47
2018-06-12T13:40:53.178Z,13.77
2018-06-12T13:43:23.071Z,12.03
2018-06-12T13:45:53.843Z,14.07
2018-06-12T13:48:23.934Z,12.83
2018-06-12T13:50:54.603Z,12.70
2018-06-12T13:53:24.830Z,13.70
2018-06-12T13:55:55.127Z,16.00
2018-06-12T13:58:25.642Z,12.27
2018-06-12T14:00:55.404Z,11.50
2018-06-12T14:03:24.826Z,13.17
2018-06-12T14:05:54.909Z,14.77
2018-06-12T14:08:25.086Z,15.23
2018-06-12T14:10:56.302Z,12.60
2018-06-12T14:13:27.037Z,12.77
2018-06-12T14:15:57.179Z,15.50
2018-06-12T14:18:27.146Z,14.50
2018-06-12T14:20:57.131Z,15.03
2018-06-12T14:23:26.978Z,14.20
2018-06-12T14:25:58.654Z,15.37
2018-06-12T14:28:29.343Z,14.87
2018-06-12T14:30:59.782Z,11.53
2018-06-12T14:33:30.850Z,13.60
2018-06-12T14:36:02.339Z,14.80
2018-06-12T14:38:32.922Z,13.07
2018-06-12T14:41:02.058Z,10.97
2018-06-12T14:43:32.036Z,13.67
2018-06-12T14:46:02.158Z,14.60
2018-06-12T14:48:32.778Z,10.90
2018-06-12T14:51:02.316Z,12.70
2018-06-12T14:53:32.093Z,14.40
2018-06-12T14:56:02.114Z,14.93
2018-06-12T14:58:31.650Z,11.83
2018-06-12T15:01:01.539Z,14.33
2018-06-12T15:03:32.390Z,10.63
2018-06-12T15:06:02.241Z,12.47
2018-06-12T15:08:33.366Z,15.00
2018-06-12T15:11:02.911Z,12.83
2018-06-12T15:13:33.550Z,12.57
2018-06-12T15:16:02.937Z,11.63
2018-06-12T15:18:33.359Z,10.30
2018-06-12T15:21:02.731Z,14.43
2018-06-12T15:23:33.799Z,11.13
2018-06-12T15:26:03.190Z,16.70
2018-06-12T15:28:32.666Z,12.57
2018-06-12T15:31:02.927Z,10.43
2018-06-12T15:33:34.923Z,13.57
2018-06-12T15:36:05.403Z,13.70
2018-06-12T15:38:35.702Z,8.93
2018-06-12T15:41:05.930Z,12.40
2018-06-12T15:43:35.551Z,14.00
2018-06-12T15:46:05.287Z,12.50
2018-06-12T15:48:35.530Z,11.47
2018-06-12T15:51:05.263Z,11.27
2018-06-12T15:53:35.765Z,13.60
2018-06-12T15:56:05.999Z,9.87
2018-06-12T15:58:35.917Z,10.80
2018-06-12T16:01:06.194Z,11.97
2018-06-12T16:03:36.206Z,10.17
2018-06-12T16:06:06.415Z,11.80
2018-06-12T16:08:36.759Z,10.97
2018-06-12T16:11:06.116Z,12.60
2018-06-12T16:13:36.497Z,15.53
2018-06-12T16:16:07.190Z,12.67
2018-06-12T16:18:37.591Z,13.80
2018-06-12T16:21:07.178Z,9.60
2018-06-12T16:23:37.674Z,13.60
2018-06-12T16:26:08.474Z,11.97
2018-06-12T16:28:39.671Z,11.37
2018-06-12T16:31:10.926Z,13.20
2018-06-12T16:33:40.634Z,11.07
2018-06-12T16:36:10.995Z,12.37
2018-06-12T16:38:40.818Z,12.80
2018-06-12T16:41:11.138Z,12.13
2018-06-12T16:43:40.867Z,12.83
2018-06-12T16:46:11.672Z,11.73
2018-06-12T16:48:42.906Z,13.23
2018-06-12T16:51:13.102Z,12.27
2018-06-12T16:53:43.005Z,9.67
2018-06-12T16:56:13.438Z,11.77
2018-06-12T16:58:42.270Z,13.07
2018-06-12T17:01:12.097Z,12.70
2018-06-12T17:03:42.129Z,14.10
2018-06-12T17:06:11.626Z,12.20
2018-06-12T17:08:40.921Z,13.40
2018-06-12T17:11:10.193Z,13.60
2018-06-12T17:13:40.606Z,16.37
2018-06-12T17:16:09.774Z,11.10
2018-06-12T17:18:39.268Z,13.17
2018-06-12T17:21:08.695Z,12.80
2018-06-12T17:23:39.003Z,11.73
2018-06-12T17:26:09.505Z,12.30
2018-06-12T17:28:39.330Z,11.37
2018-06-12T17:31:09.351Z,11.57
2018-06-12T17:33:38.466Z,11.07
2018-06-12T17:36:08.883Z,11.67
2018-06-12T17:38:39.117Z,13.27
2018-06-12T17:41:09.084Z,12.43
2018-06-12T17:43:39.609Z,12.30
2018-06-12T17:46:08.737Z,13.10
2018-06-12T17:48:38.635Z,12.60
2018-06-12T17:51:09.026Z,14.60
2018-06-12T17:53:38.938Z,15.40
2018-06-12T17:56:08.154Z,12.37
2018-06-12T17:58:38.455Z,13.33
2018-06-12T18:01:08.018Z,13.33
2018-06-12T18:03:37.689Z,15.20
2018-06-12T18:06:07.458Z,12.43
2018-06-12T18:08:37.037Z,17.17
2018-06-12T18:11:07.690Z,14.87
2018-06-12T18:13:43.810Z,11.13
2018-06-12T18:16:14.866Z,11.63
2018-06-12T18:18:44.983Z,12.40
2018-06-12T18:21:15.076Z,15.40
2018-06-12T18:23:44.637Z,10.73
2018-06-12T18:26:15.177Z,11.30
2018-06-12T18:28:46.410Z,13.60
2018-06-12T18:31:16.088Z,10.53
2018-06-12T18:33:45.971Z,13.70
2018-06-12T18:36:16.029Z,9.77
2018-06-12T18:38:45.809Z,12.50
2018-06-12T18:41:16.801Z,11.47
2018-06-12T18:43:46.287Z,11.80
2018-06-12T18:46:17.382Z,11.07
2018-06-12T18:48:47.122Z,11.83
2018-06-12T18:51:17.113Z,13.20
2018-06-12T18:53:48.138Z,12.00
2018-06-12T18:56:17.819Z,11.53
2018-06-12T18:58:48.206Z,12.40
2018-06-12T19:01:18.762Z,14.37
2018-06-12T19:03:49.590Z,14.00
2018-06-12T19:06:19.179Z,13.27
2018-06-12T19:08:50.178Z,12.47
2018-06-12T19:11:20.978Z,14.20
2018-06-12T19:13:52.082Z,11.60
2018-06-12T19:16:22.587Z,10.57
2018-06-12T19:18:52.966Z,13.63
2018-06-12T19:21:22.952Z,10.00
2018-06-12T19:23:52.872Z,13.47
2018-06-12T19:26:22.822Z,12.27
2018-06-12T19:28:52.531Z,11.90
2018-06-12T19:31:22.578Z,10.80
2018-06-12T19:33:52.637Z,10.50
2018-06-12T19:36:22.571Z,10.73
2018-06-12T19:38:53.410Z,12.63
2018-06-12T19:41:24.141Z,10.27
2018-06-12T19:43:54.030Z,10.60
2018-06-12T19:46:23.493Z,10.20
2018-06-12T19:48:53.661Z,10.27
2018-06-12T19:51:23.994Z,10.27
2018-06-12T19:53:53.219Z,9.90
2018-06-12T19:56:24.535Z,11.57
2018-06-12T19:58:55.342Z,10.83
2018-06-12T20:01:25.566Z,10.53
2018-06-12T20:03:55.913Z,10.87
2018-06-12T20:06:26.167Z,8.77
2018-06-12T20:08:56.626Z,10.40
2018-06-12T20:11:27.875Z,8.20
2018-06-12T20:13:58.190Z,7.73
2018-06-12T20:16:27.409Z,8.17
2018-06-12T20:18:57.347Z,9.50
2018-06-12T20:21:26.835Z,11.23
2018-06-12T20:23:57.466Z,10.17
2018-06-12T20:26:28.251Z,8.47
2018-06-12T20:28:58.566Z,10.60
2018-06-12T20:31:27.922Z,8.07
2018-06-12T20:33:58.130Z,10.73
2018-06-12T20:36:27.786Z,9.00
2018-06-12T20:38:56.934Z,9.03
2018-06-12T20:41:27.081Z,6.63
2018-06-12T20:43:57.810Z,8.97
2018-06-12T20:46:27.346Z,9.47
2018-06-12T20:48:58.494Z,7.87
2018-06-12T20:51:27.985Z,7.63
2018-06-12T20:53:58.509Z,8.63
2018-06-12T20:56:28.746Z,9.23
2018-06-12T20:58:58.645Z,6.47
2018-06-12T21:01:28.574Z,9.80
2018-06-12T21:03:58.296Z,7.87
2018-06-12T21:06:28.694Z,7.30
2018-06-12T21:08:59.318Z,7.83
2018-06-12T21:11:29.607Z,7.67
2018-06-12T21:13:58.754Z,7.40
2018-06-12T21:16:29.051Z,6.77
2018-06-12T21:18:59.938Z,6.70
2018-06-12T21:21:30.511Z,6.60
2018-06-12T21:24:01.618Z,6.07
2018-06-12T21:26:31.474Z,6.20
2018-06-12T21:29:01.529Z,6.10
2018-06-12T21:31:32.683Z,8.87
2018-06-12T21:34:02.982Z,8.77
2018-06-12T21:36:32.642Z,6.00
2018-06-12T21:39:03.222Z,5.03
2018-06-12T21:41:33.261Z,6.30
2018-06-12T21:44:02.772Z,4.93
2018-06-12T21:46:32.603Z,7.80
2018-06-12T21:49:02.102Z,7.43
2018-06-12T21:51:32.256Z,6.30
2018-06-12T21:54:02.458Z,5.77
2018-06-12T21:56:32.025Z,4.73
2018-06-12T21:59:02.116Z,5.53
2018-06-12T22:01:32.939Z,8.03
2018-06-12T22:04:03.678Z,5.07
2018-06-12T22:06:34.370Z,5.40
2018-06-12T22:09:05.339Z,4.97
2018-06-12T22:11:35.426Z,5.67
2018-06-12T22:14:06.098Z,3.67
2018-06-12T22:16:35.690Z,4.80
2018-06-12T22:19:06.173Z,5.40
2018-06-12T22:21:36.429Z,4.10
2018-06-12T22:24:05.861Z,3.87
2018-06-12T22:26:36.023Z,5.93
2018-06-12T22:29:06.607Z,5.03
2018-06-12T22:31:38.322Z,5.73
2018-06-12T22:34:09.342Z,3.50
2018-06-12T22:36:41.195Z,6.03
2018-06-12T22:39:11.709Z,4.30
2018-06-12T22:41:40.834Z,8.33
2018-06-12T22:44:10.255Z,4.93
2018-06-12T22:46:40.390Z,5.40
2018-06-12T22:49:09.270Z,6.07
2018-06-12T22:51:38.279Z,6.00
2018-06-12T22:54:08.745Z,5.90
2018-06-12T22:56:39.254Z,3.67
2018-06-12T22:59:08.756Z,4.33
2018-06-12T23:01:38.230Z,3.80
2018-06-12T23:04:08.446Z,5.10
2018-06-12T23:06:37.570Z,3.13
2018-06-12T23:09:08.497Z,5.80
2018-06-12T23:11:37.694Z,3.87
2018-06-12T23:14:07.590Z,4.40
2018-06-12T23:16:38.130Z,5.90
2018-06-12T23:19:07.702Z,6.70
2018-06-12T23:21:49.267Z,5.00
2018-06-12T23:24:20.282Z,5.67
2018-06-12T23:26:50.911Z,10.97
2018-06-12T23:29:20.798Z,7.43
2018-06-12T23:31:51.566Z,6.07
2018-06-12T23:34:23.698Z,3.73
2018-06-12T23:36:53.913Z,4.93
2018-06-12T23:39:24.361Z,7.50
2018-06-12T23:41:55.397Z,7.73
2018-06-12T23:44:25.849Z,5.73
2018-06-12T23:46:56.566Z,4.70
2018-06-12T23:49:26.481Z,5.47
2018-06-12T23:51:56.334Z,5.13
2018-06-12T23:54:26.003Z,8.40
2018-06-12T23:56:56.754Z,9.53
2018-06-12T23:59:26.683Z,5.67
